Time;durP1;ratioP1;P1;durP2;ratioP2;P2;SDS_P1;SDS_P2;PMS_P1;PMS_P2;Temp;Humidity;BMP_temperature;BMP_pressure;BME280_temperature;BME280_humidity;BME280_pressure;Samples;Min_cycle;Max_cycle;Signal;HPM_P1;HPM_P2
2022/09/13 00:00:06;;;;;;;3.50;2.10;;;;;;;20.71;48.49;98561.25;6137878;23;20158;-96
2022/09/13 00:02:41;;;;;;;5.20;2.20;;;;;;;20.69;48.77;98559.75;6138175;23;20226;-96
2022/09/13 00:05:10;;;;;;;6.40;1.83;;;;;;;20.52;48.92;98558.81;6134409;23;20168;-95
2022/09/13 00:07:49;;;;;;;2.63;1.33;;;;;;;20.57;49.12;98566.34;6137033;23;20162;-96
2022/09/13 00:10:16;;;;;;;3.53;1.77;;;;;;;20.63;48.68;98561.22;6161005;23;20245;-93
2022/09/13 00:12:47;;;;;;;2.93;1.87;;;;;;;20.63;48.59;98568.38;6137178;23;20187;-94
2022/09/13 00:15:20;;;;;;;3.20;2.17;;;;;;;20.75;48.29;98570.59;6138894;23;20186;-95
2022/09/13 00:21:31;;;;;;;3.40;1.63;;;;;;;20.73;48.31;98567.25;6225755;23;20152;-96
2022/09/13 00:23:57;;;;;;;2.40;1.80;;;;;;;20.66;48.35;98563.56;6201365;23;20161;-95
2022/09/13 00:26:29;;;;;;;3.90;1.70;;;;;;;20.69;48.17;98559.75;6201252;23;20165;-95
2022/09/13 00:29:02;;;;;;;3.00;1.57;;;;;;;20.64;48.27;98562.06;6200176;23;20215;-94
2022/09/13 00:31:32;;;;;;;2.27;1.50;;;;;;;20.74;47.96;98568.09;6226278;23;20137;-96
2022/09/13 00:35:05;;;;;;;4.27;1.90;;;;;;;20.83;47.78;98567.97;6202338;23;20163;-95
2022/09/13 00:37:38;;;;;;;4.80;1.60;;;;;;;20.86;47.97;98574.00;6193380;23;20190;-96
2022/09/13 00:40:09;;;;;;;3.53;2.00;;;;;;;20.74;47.85;98570.75;6168729;23;20185;-96
2022/09/13 00:42:39;;;;;;;2.43;1.60;;;;;;;20.73;47.79;98567.25;6166950;23;20166;-96
2022/09/13 00:45:39;;;;;;;3.30;1.50;;;;;;;20.72;48.01;98565.59;6175445;23;20214;-96
2022/09/13 00:48:24;;;;;;;4.80;1.43;;;;;;;20.59;48.35;98559.03;6109092;23;20152;-96
2022/09/13 00:55:49;;;;;;;;;;;;;;;;;;;;;
2022/09/13 00:58:33;;;;;;;2.97;1.70;;;;;;;20.67;48.17;98556.41;6138485;23;20187;-96
2022/09/13 01:07:08;;;;;;;4.93;1.90;;;;;;;20.30;49.14;98548.69;6262167;22;20144;-96
2022/09/13 01:09:42;;;;;;;4.60;2.03;;;;;;;20.29;48.96;98556.81;6230644;23;20179;-95
2022/09/13 01:13:13;;;;;;;5.50;2.07;;;;;;;20.32;49.01;98546.72;6233985;23;20211;-95
2022/09/13 01:18:47;;;;;;;6.00;2.00;;;;;;;20.05;49.48;98554.78;6131031;23;20214;-94
2022/09/13 01:21:50;;;;;;;4.20;1.60;;;;;;;19.89;50.05;98555.47;6149822;23;20512;-96
2022/09/13 01:24:59;;;;;;;;;;;;;;;;;;;;;
2022/09/13 01:27:52;;;;;;;5.47;1.77;;;;;;;19.87;49.93;98557.47;6257461;23;20144;-96
2022/09/13 01:30:59;;;;;;;4.93;1.47;;;;;;;20.06;49.72;98551.97;6232615;23;20156;-96
2022/09/13 01:33:49;;;;;;;5.00;1.67;;;;;;;20.04;49.39;98553.13;6194551;23;20160;-96
2022/09/13 01:36:44;;;;;;;3.53;1.83;;;;;;;20.06;49.06;98544.00;6169090;23;20150;-96
2022/09/13 01:50:04;;;;;;;2.97;1.57;;;;;;;20.19;48.44;98546.25;6179430;23;20158;-96
2022/09/13 01:53:28;;;;;;;1.87;1.33;;;;;;;20.16;48.84;98552.72;6230575;23;20176;-96
2022/09/13 02:02:18;;;;;;;2.10;1.13;;;;;;;20.18;48.15;98542.75;6256941;23;20132;-96
2022/09/13 02:05:36;;;;;;;;;;;;;;;;;;;;;
2022/09/13 02:08:55;;;;;;;;;;;;;;;;;;;;;
2022/09/13 02:11:47;;;;;;;3.30;1.50;;;;;;;20.48;47.34;98543.31;6124701;23;20175;-96
2022/09/13 02:14:20;;;;;;;2.70;1.67;;;;;;;20.44;47.36;98539.31;6104657;23;20156;-96
2022/09/13 02:17:16;;;;;;;2.93;1.47;;;;;;;20.47;47.36;98538.97;6131364;23;20729;-96
2022/09/13 02:19:57;;;;;;;1.37;0.90;;;;;;;20.37;47.43;98532.91;6108368;23;20156;-96
2022/09/13 02:22:38;;;;;;;3.10;1.80;;;;;;;20.16;48.33;98538.56;6130086;23;20156;-96
2022/09/13 02:25:38;;;;;;;2.50;1.50;;;;;;;19.87;49.23;98543.31;6107523;23;20187;-94
2022/09/13 02:28:08;;;;;;;4.33;1.77;;;;;;;19.86;49.15;98545.16;6131204;23;20222;-96
2022/09/13 02:30:40;;;;;;;2.67;1.40;;;;;;;20.00;48.88;98538.44;6107732;23;20160;-96
2022/09/13 02:33:28;;;;;;;2.33;1.10;;;;;;;19.80;49.47;98534.28;6220583;23;20161;-96
2022/09/13 02:36:25;;;;;;;2.43;1.40;;;;;;;19.77;49.77;98538.09;6199999;23;20196;-95
2022/09/13 02:39:14;;;;;;;2.57;1.33;;;;;;;19.78;49.64;98536.28;6210923;23;20284;-94
2022/09/13 02:42:16;;;;;;;2.27;1.40;;;;;;;19.57;50.20;98536.59;6225016;23;20180;-96
2022/09/13 02:44:55;;;;;;;2.33;1.30;;;;;;;19.66;50.18;98543.63;6228859;23;20153;-96
2022/09/13 02:47:42;;;;;;;2.60;1.40;;;;;;;19.64;50.29;98548.28;6230428;23;20236;-96
2022/09/13 02:50:29;;;;;;;2.40;1.50;;;;;;;19.57;50.57;98544.56;6226297;23;20152;-96
2022/09/13 02:53:25;;;;;;;1.47;1.10;;;;;;;19.56;50.57;98545.53;6229855;23;20583;-96
2022/09/13 02:56:43;;;;;;;;;;;;;;;;;;;;;
2022/09/13 02:59:41;;;;;;;;;;;;;;;;;;;;;
2022/09/13 03:02:18;;;;;;;10.00;1.77;;;;;;;19.50;50.71;98541.66;6103018;23;20181;-96
2022/09/13 03:04:49;;;;;;;2.17;1.10;;;;;;;19.42;51.14;98548.72;6200442;23;20149;-96
2022/09/13 03:07:19;;;;;;;2.40;1.27;;;;;;;19.63;50.62;98543.94;6199806;23;20161;-95
2022/09/13 03:10:00;;;;;;;3.77;1.60;;;;;;;19.34;51.59;98548.63;6199624;23;20184;-96
2022/09/13 03:12:58;;;;;;;4.03;1.60;;;;;;;19.46;51.15;98553.59;6199865;23;20227;-95
2022/09/13 03:16:20;;;;;;;2.07;1.17;;;;;;;19.13;52.00;98545.38;6196015;23;20188;-95
2022/09/13 03:19:31;;;;;;;2.67;1.30;;;;;;;19.17;52.39;98546.75;6105911;23;20725;-96
2022/09/13 03:22:53;;;;;;;3.07;1.53;;;;;;;18.92;52.68;98557.06;6082736;23;20152;-96
2022/09/13 03:25:49;;;;;;;3.77;1.90;;;;;;;19.22;52.20;98561.25;6080581;23;20494;-96
2022/09/13 03:29:03;;;;;;;;;;;;;;;;;;;;;
2022/09/13 03:32:05;;;;;;;3.53;1.47;;;;;;;19.55;51.19;98557.16;6108146;23;20184;-96
2022/09/13 03:35:12;;;;;;;;;;;;;;;;;;;;;
2022/09/13 03:38:21;;;;;;;6.17;1.43;;;;;;;19.08;52.75;98552.97;6098691;23;20210;-96
2022/09/13 03:40:57;;;;;;;2.90;1.30;;;;;;;19.25;52.38;98565.44;6216754;23;20157;-96
2022/09/13 03:43:51;;;;;;;;;;;;;;;;;;;;;
2022/09/13 03:46:33;;;;;;;3.17;1.40;;;;;;;19.40;51.90;98563.97;6133391;23;20162;-96
2022/09/13 03:49:26;;;;;;;4.97;1.77;;;;;;;19.30;52.52;98563.16;6196931;23;20152;-96
2022/09/13 03:52:28;;;;;;;2.70;1.73;;;;;;;19.34;52.21;98565.38;6203511;23;20150;-96
2022/09/13 03:55:04;;;;;;;2.50;1.47;;;;;;;19.51;51.52;98569.09;6167584;23;20153;-96
2022/09/13 03:58:09;;;;;;;3.07;1.67;;;;;;;19.29;52.39;98572.13;6202986;23;20200;-96
2022/09/13 04:00:40;;;;;;;5.83;1.50;;;;;;;19.37;52.20;98580.19;6232654;23;20172;-96
2022/09/13 04:03:13;;;;;;;3.00;1.60;;;;;;;19.61;51.59;98577.81;6223188;23;20240;-95
2022/09/13 04:05:43;;;;;;;2.80;1.50;;;;;;;19.70;51.00;98576.09;6225886;23;20157;-96
2022/09/13 04:08:21;;;;;;;3.40;1.40;;;;;;;19.75;50.74;98587.94;6229113;23;20200;-96
2022/09/13 04:11:04;;;;;;;3.03;1.73;;;;;;;19.70;50.71;98582.25;6254040;23;20156;-96
2022/09/13 04:13:51;;;;;;;;;;;;;;;;;;;;;
2022/09/13 04:16:17;;;;;;;2.87;1.50;;;;;;;19.58;51.59;98575.47;6243113;23;20173;-95
2022/09/13 04:19:18;;;;;;;;;;;;;;;;;;;;;
2022/09/13 04:26:12;;;;;;;4.67;2.00;;;;;;;19.45;51.93;98578.50;6156509;23;20154;-96
2022/09/13 04:28:36;;;;;;;2.43;1.33;;;;;;;19.57;51.64;98569.31;6150088;23;20147;-94
2022/09/13 04:31:51;;;;;;;2.47;1.40;;;;;;;19.41;52.10;98581.59;6097323;23;20156;-95
2022/09/13 04:34:54;;;;;;;4.80;1.37;;;;;;;19.50;51.64;98589.50;6072156;23;20317;-96
2022/09/13 04:37:56;;;;;;;3.03;1.70;;;;;;;19.51;52.00;98593.00;6010295;23;20182;-95
2022/09/13 04:40:41;;;;;;;4.10;1.43;;;;;;;19.44;52.21;98590.09;6037444;23;20234;-96
2022/09/13 04:46:59;;;;;;;2.93;1.77;;;;;;;19.39;52.36;98604.84;6100543;23;20197;-95
2022/09/13 04:49:28;;;;;;;2.97;1.70;;;;;;;19.63;51.65;98602.44;6155053;23;20602;-95
2022/09/13 04:51:55;;;;;;;1.83;1.33;;;;;;;19.68;51.88;98604.66;6154385;23;20159;-96
2022/09/13 04:54:29;;;;;;;2.47;1.50;;;;;;;19.78;51.47;98600.09;6154924;23;20194;-96
2022/09/13 04:56:56;;;;;;;3.00;1.53;;;;;;;19.92;50.76;98608.38;6130512;23;20229;-96
2022/09/13 04:59:22;;;;;;;2.70;1.53;;;;;;;19.97;50.75;98614.06;6199701;23;20229;-96
2022/09/13 05:02:09;;;;;;;4.13;1.63;;;;;;;20.07;50.33;98622.81;6246251;23;20600;-96
2022/09/13 05:04:36;;;;;;;3.67;1.70;;;;;;;20.16;50.30;98621.91;6221220;23;20176;-96
2022/09/13 05:07:08;;;;;;;2.70;1.60;;;;;;;20.11;50.24;98612.72;6245778;23;20184;-96
2022/09/13 05:09:35;;;;;;;2.70;1.73;;;;;;;20.14;50.21;98623.91;6221315;23;20191;-96
2022/09/13 05:12:03;;;;;;;3.10;1.87;;;;;;;20.32;49.79;98621.25;6220230;23;20844;-96
2022/09/13 05:14:29;;;;;;;3.50;1.70;;;;;;;20.35;49.99;98625.41;6222476;23;20155;-96
2022/09/13 05:16:56;;;;;;;3.63;1.70;;;;;;;20.41;50.01;98627.47;6220453;23;20157;-95
2022/09/13 05:19:23;;;;;;;4.20;1.60;;;;;;;20.53;49.50;98623.56;6221228;23;20156;-95
2022/09/13 05:22:22;;;;;;;;;;;;;;;;;;;;;
2022/09/13 05:24:56;;;;;;;3.90;1.80;;;;;;;20.23;50.70;98628.31;6241600;23;20159;-93
2022/09/13 05:27:32;;;;;;;4.07;1.70;;;;;;;20.29;50.64;98624.19;6221048;23;20163;-95
2022/09/13 05:30:19;;;;;;;2.37;1.70;;;;;;;20.10;51.50;98627.00;6247057;23;20564;-96
2022/09/13 05:32:56;;;;;;;3.53;1.97;;;;;;;20.07;51.26;98628.13;6247349;23;20165;-96
2022/09/13 05:35:23;;;;;;;3.47;1.60;;;;;;;19.94;52.24;98625.03;6223432;23;20175;-94
2022/09/13 05:37:50;;;;;;;3.30;1.93;;;;;;;20.16;52.03;98621.06;6220778;23;20180;-95
2022/09/13 05:40:37;;;;;;;6.30;1.60;;;;;;;20.39;51.62;98626.81;6220430;23;20157;-96
2022/09/13 05:43:30;;;;;;;3.27;1.60;;;;;;;20.27;51.76;98628.00;6222049;23;20165;-96
2022/09/13 05:46:13;;;;;;;3.60;1.63;;;;;;;20.34;51.45;98631.72;6221334;23;20491;-94
2022/09/13 05:48:58;;;;;;;4.77;1.90;;;;;;;20.50;50.58;98623.88;6220887;23;20633;-96
2022/09/13 05:52:21;;;;;;;;;;;;;;;;;;;;;
2022/09/13 05:55:49;;;;;;;2.27;1.60;;;;;;;20.55;51.81;98626.88;6248857;23;20231;-95
2022/09/13 05:58:32;;;;;;;7.63;1.50;;;;;;;20.66;50.68;98629.31;6216429;23;20209;-96
2022/09/13 06:01:08;;;;;;;2.97;1.57;;;;;;;20.74;51.01;98629.38;6220916;23;20161;-96
2022/09/13 06:03:41;;;;;;;7.27;1.57;;;;;;;20.86;50.47;98625.44;6221177;23;20152;-96
2022/09/13 06:06:17;;;;;;;2.97;1.57;;;;;;;20.85;50.32;98637.09;6221608;23;20161;-96
2022/09/13 06:08:44;;;;;;;2.37;1.30;;;;;;;20.72;50.58;98618.88;6222356;23;20180;-95
2022/09/13 06:11:15;;;;;;;3.50;1.63;;;;;;;20.96;50.15;98618.19;6247360;23;20188;-94
2022/09/13 06:13:45;;;;;;;2.23;1.10;;;;;;;21.13;50.32;98622.63;6221396;23;20153;-95
2022/09/13 06:16:15;;;;;;;1.93;1.13;;;;;;;21.33;49.71;98626.69;6226518;23;20173;-95
2022/09/13 06:18:46;;;;;;;3.20;2.00;;;;;;;21.59;48.66;98623.97;6249752;23;20202;-95
2022/09/13 06:22:00;;;;;;;4.13;1.60;;;;;;;21.71;48.47;98630.69;6223793;23;20169;-95
2022/09/13 06:25:00;;;;;;;2.67;1.30;;;;;;;21.78;48.10;98636.19;6223251;23;20157;-95
2022/09/13 06:27:30;;;;;;;2.83;1.30;;;;;;;21.81;47.97;98634.03;6221772;23;20220;-93
2022/09/13 06:30:20;;;;;;;;;;;;;;;;;;;;;
2022/09/13 06:33:21;;;;;;;4.70;1.70;;;;;;;22.38;46.81;98626.13;6220819;23;20243;-95
2022/09/13 06:35:48;;;;;;;3.33;1.70;;;;;;;22.84;46.53;98617.41;6216971;23;20160;-95
2022/09/13 06:38:21;;;;;;;2.57;1.20;;;;;;;23.26;45.00;98611.78;6222428;23;20177;-96
2022/09/13 06:41:21;;;;;;;;;;;;;;;;;;;;;
2022/09/13 06:44:07;;;;;;;;;;;;;;;;;;;;;
2022/09/13 06:47:07;;;;;;;2.30;1.20;;;;;;;23.85;43.49;98629.88;6245622;23;20184;-95
2022/09/13 06:50:21;;;;;;;2.07;1.00;;;;;;;23.91;42.84;98627.50;6166974;23;20158;-96
2022/09/13 06:57:03;;;;;;;;;;;;;;;;;;;;;
2022/09/13 06:59:53;;;;;;;2.73;1.30;;;;;;;24.92;40.92;98653.84;6184527;23;20265;-96
2022/09/13 07:03:18;;;;;;;2.07;1.23;;;;;;;25.17;40.52;98645.56;6166425;23;20257;-96
2022/09/13 07:10:47;;;;;;;6.33;1.00;;;;;;;25.90;38.82;98646.31;5990559;24;20191;-96
2022/09/13 07:23:32;;;;;;;;;;;;;;;;;;;;;
2022/09/13 07:29:41;;;;;;;6.23;1.57;;;;;;;26.93;37.43;98645.88;5863082;24;20183;-88
2022/09/13 07:32:49;;;;;;;;;;;;;;;;;;;;;
2022/09/13 07:42:28;;;;;;;;;;;;;;;;;;;;;
2022/09/13 07:49:18;;;;;;;2.83;1.00;;;;;;;27.10;36.14;98648.06;5904706;24;20157;-91
2022/09/13 07:52:00;;;;;;;;;;;;;;;;;;;;;
2022/09/13 07:55:02;;;;;;;;;;;;;;;;;;;;;
2022/09/13 07:58:08;;;;;;;1.85;0.98;;;;;;;26.62;34.54;98659.69;5825801;24;20296;-90
2022/09/13 08:08:43;;;;;;;3.00;1.10;;;;;;;27.21;33.73;98644.84;5862249;24;20219;-89
2022/09/13 08:36:00;;;;;;;2.55;0.88;;;;;;;28.37;30.49;98633.91;5713416;25;20244;-91
2022/09/13 08:45:23;;;;;;;0.93;0.60;;;;;;;28.14;30.73;98627.25;5739782;25;20207;-89
2022/09/13 08:55:25;;;;;;;1.60;0.70;;;;;;;28.38;30.78;98645.53;5776378;24;20174;-91
2022/09/13 09:09:08;;;;;;;1.42;0.77;;;;;;;28.29;30.20;98638.66;5843534;24;20170;-90
2022/09/13 09:16:03;;;;;;;1.02;0.57;;;;;;;29.00;28.79;98637.88;5774707;24;20520;-91
2022/09/13 09:22:24;;;;;;;1.55;0.90;;;;;;;29.11;28.85;98623.72;5825408;24;20298;-89
2022/09/13 09:28:36;;;;;;;1.55;0.90;;;;;;;28.96;28.83;98622.28;5869719;24;20166;-88
2022/09/13 09:34:41;;;;;;;0.95;0.57;;;;;;;29.59;28.73;98623.41;5980803;24;20223;-91
2022/09/13 09:41:25;;;;;;;1.67;0.60;;;;;;;29.67;27.67;98632.09;5870358;24;20166;-90
2022/09/13 09:44:53;;;;;;;1.23;0.60;;;;;;;29.55;27.32;98628.41;5871505;24;20161;-90
2022/09/13 09:48:21;;;;;;;;;;;;;;;;;;;;;
2022/09/13 09:51:35;;;;;;;1.08;0.77;;;;;;;30.05;26.25;98618.63;5837494;24;20761;-90
2022/09/13 09:54:37;;;;;;;1.50;0.65;;;;;;;30.41;26.39;98626.13;5843545;24;20178;-90
2022/09/13 09:57:55;;;;;;;0.90;0.50;;;;;;;30.09;26.15;98629.81;5826478;24;20168;-90
2022/09/13 10:00:33;;;;;;;1.63;0.50;;;;;;;29.83;27.07;98620.84;5873834;24;20165;-91
2022/09/13 10:03:19;;;;;;;1.17;0.63;;;;;;;30.31;26.95;98623.03;5922507;23;20220;-89
2022/09/13 10:06:21;;;;;;;0.90;0.50;;;;;;;30.63;26.13;98615.75;6009114;23;20242;-89
2022/09/13 10:09:18;;;;;;;3.08;0.60;;;;;;;30.72;25.42;98611.69;6036653;23;20609;-91
2022/09/13 10:12:23;;;;;;;0.90;0.50;;;;;;;30.29;25.65;98625.94;6036921;23;20185;-90
2022/09/13 10:18:17;;;;;;;1.17;0.55;;;;;;;30.72;25.29;98609.00;6051354;23;20185;-90
2022/09/13 10:21:44;;;;;;;;;;;;;;;;;;;;;
2022/09/13 10:24:29;;;;;;;2.08;0.57;;;;;;;30.51;26.08;98596.69;6104075;23;20242;-89
2022/09/13 10:30:59;;;;;;;0.90;0.40;;;;;;;30.93;25.56;98590.50;6036542;23;20164;-90
2022/09/13 10:34:33;;;;;;;0.50;0.40;;;;;;;30.42;24.31;98592.63;6034688;23;20162;-91
2022/09/13 10:37:59;;;;;;;0.80;0.30;;;;;;;30.14;25.68;98589.44;6036813;23;20321;-88
2022/09/13 10:41:25;;;;;;;1.50;0.50;;;;;;;30.57;26.10;98578.75;6004187;23;20241;-89
2022/09/13 10:44:38;;;;;;;2.20;0.52;;;;;;;30.42;26.65;98588.00;6118984;23;20180;-90
2022/09/13 10:48:11;;;;;;;;;;;;;;;;;;;;;
2022/09/13 10:51:07;;;;;;;1.15;0.60;;;;;;;29.85;26.75;98577.38;6091853;23;20243;-89
2022/09/13 10:53:41;;;;;;;0.68;0.43;;;;;;;30.04;27.00;98576.41;6092233;23;20244;-88
2022/09/13 10:56:30;;;;;;;2.38;0.70;;;;;;;30.15;24.95;98572.19;6092734;23;20636;-89
2022/09/13 10:59:28;;;;;;;1.08;0.50;;;;;;;30.51;25.51;98552.56;6085962;23;20192;-89
2022/09/13 11:02:32;;;;;;;2.35;0.57;;;;;;;30.65;24.41;98554.97;6123061;23;20159;-89
2022/09/13 11:05:22;;;;;;;1.98;0.80;;;;;;;30.75;25.25;98554.44;6111495;23;20164;-88
2022/09/13 11:08:21;;;;;;;2.15;0.52;;;;;;;31.21;24.88;98545.84;6188364;23;20570;-89
2022/09/13 11:11:21;;;;;;;0.88;0.45;;;;;;;31.51;25.40;98541.31;6214679;23;20192;-89
2022/09/13 11:14:58;;;;;;;1.02;0.60;;;;;;;31.95;24.67;98540.91;6215645;23;20133;-90
2022/09/13 11:17:37;;;;;;;1.48;0.60;;;;;;;31.88;24.44;98544.75;6207140;23;20223;-91
2022/09/13 11:20:29;;;;;;;1.08;0.50;;;;;;;31.72;24.77;98540.00;6189358;23;20565;-90
2022/09/13 11:23:43;;;;;;;1.30;0.70;;;;;;;31.31;25.24;98543.44;6215386;23;20134;-89
2022/09/13 11:26:51;;;;;;;1.55;0.70;;;;;;;30.22;26.60;98548.63;6214809;23;20130;-90
2022/09/13 11:30:19;;;;;;;0.77;0.43;;;;;;;29.80;26.33;98539.38;6189262;23;20554;-89
2022/09/13 11:33:21;;;;;;;1.85;0.70;;;;;;;30.32;26.67;98527.34;6163312;23;20154;-90
2022/09/13 11:35:52;;;;;;;1.52;0.82;;;;;;;30.29;25.43;98533.19;6189213;23;20153;-89
2022/09/13 11:38:49;;;;;;;2.95;0.57;;;;;;;30.43;25.33;98515.81;6189184;23;20182;-88
2022/09/13 11:41:55;;;;;;;1.20;0.50;;;;;;;30.51;25.11;98523.66;6215056;23;20177;-90
2022/09/13 11:48:29;;;;;;;;;;;;;;;;;;;;;
2022/09/13 11:51:47;;;;;;;0.88;0.40;;;;;;;31.22;22.83;98513.13;6216812;23;20554;-90
2022/09/13 11:54:31;;;;;;;0.60;0.30;;;;;;;31.54;21.83;98506.47;6190344;23;20590;-91
2022/09/13 11:57:16;;;;;;;0.75;0.38;;;;;;;31.78;23.01;98495.72;6216936;23;20142;-89
2022/09/13 12:00:14;;;;;;;0.75;0.30;;;;;;;31.89;22.71;98506.56;6216039;23;20620;-88
2022/09/13 12:03:25;;;;;;;0.82;0.40;;;;;;;32.02;22.46;98495.56;6222316;22;20600;-89
2022/09/13 12:10:27;;;;;;;0.85;0.30;;;;;;;31.68;23.37;98507.13;6135913;23;20243;-89
2022/09/13 12:13:13;;;;;;;0.88;0.52;;;;;;;32.14;23.92;98504.53;6213140;23;20161;-89
2022/09/13 12:15:41;;;;;;;2.17;0.50;;;;;;;31.91;23.39;98506.34;6215901;23;20160;-90
2022/09/13 12:18:58;;;;;;;2.75;0.55;;;;;;;31.23;24.28;98503.13;6215637;23;20523;-90
2022/09/13 12:21:49;;;;;;;1.08;0.30;;;;;;;31.18;23.95;98500.28;6166060;23;20598;-90
2022/09/13 12:24:36;;;;;;;1.70;0.55;;;;;;;31.05;23.75;98495.03;6216222;23;20596;-92
2022/09/13 12:27:27;;;;;;;1.75;0.75;;;;;;;30.92;23.74;98504.94;6215238;23;20524;-89
2022/09/13 12:30:05;;;;;;;2.63;0.60;;;;;;;31.21;23.21;98499.81;6216632;23;20677;-87
2022/09/13 12:32:39;;;;;;;0.52;0.30;;;;;;;31.38;23.36;98501.66;6216923;23;20138;-89
2022/09/13 12:35:56;;;;;;;0.77;0.40;;;;;;;31.47;23.06;98499.50;6216571;23;20474;-89
2022/09/13 12:38:21;;;;;;;1.00;0.40;;;;;;;31.81;22.53;98506.94;6110098;23;20193;-89
2022/09/13 12:41:46;;;;;;;;;;;;;;;;;;;;;
2022/09/13 12:44:52;;;;;;;0.98;0.32;;;;;;;31.40;22.57;98509.53;6216236;23;20232;-88
2022/09/13 12:47:51;;;;;;;0.70;0.30;;;;;;;31.62;22.74;98505.31;6216233;23;20176;-89
2022/09/13 12:50:47;;;;;;;1.25;0.45;;;;;;;31.66;22.17;98509.22;6215765;23;20487;-91
2022/09/13 12:53:38;;;;;;;;;;;;;;;;;;;;;
2022/09/13 12:56:44;;;;;;;0.98;0.40;;;;;;;31.81;22.20;98506.94;6215989;23;20622;-89
2022/09/13 12:59:38;;;;;;;0.55;0.30;;;;;;;32.01;21.94;98496.63;6213647;23;20196;-88
2022/09/13 13:06:13;;;;;;;0.93;0.50;;;;;;;32.21;22.43;98501.72;6112530;23;20238;-89
2022/09/13 13:08:48;;;;;;;0.57;0.20;;;;;;;32.34;21.82;98495.25;6219631;23;20236;-88
2022/09/13 13:11:47;;;;;;;0.95;0.40;;;;;;;32.51;21.38;98496.19;6246349;23;20553;-89
2022/09/13 13:15:15;;;;;;;;;;;;;;;;;;;;;
2022/09/13 13:21:00;;;;;;;0.65;0.30;;;;;;;32.48;21.52;98513.78;6109343;23;20155;-90
2022/09/13 13:23:29;;;;;;;0.40;0.28;;;;;;;32.01;22.20;98507.47;6199126;23;20565;-88
2022/09/13 13:26:20;;;;;;;0.82;0.45;;;;;;;31.92;22.29;98514.25;6246266;23;20164;-90
2022/09/13 13:29:05;;;;;;;2.55;0.32;;;;;;;31.61;22.65;98512.63;6219501;23;20165;-90
2022/09/13 13:32:07;;;;;;;2.25;0.40;;;;;;;31.31;23.04;98521.78;6220099;23;20153;-93
2022/09/13 13:34:54;;;;;;;0.77;0.40;;;;;;;31.12;23.56;98520.13;6186954;23;20581;-90
2022/09/13 13:44:20;;;;;;;1.08;0.50;;;;;;;30.69;24.46;98515.56;6180318;23;20253;-89
2022/09/13 13:47:37;;;;;;;;;;;;;;;;;;;;;
2022/09/13 13:50:20;;;;;;;2.72;0.40;;;;;;;30.82;23.42;98511.88;6076594;23;20242;-89
2022/09/13 13:53:09;;;;;;;1.02;0.60;;;;;;;30.17;24.13;98513.31;6223231;23;20163;-89
2022/09/13 13:56:39;;;;;;;;;;;;;;;;;;;;;
2022/09/13 13:59:15;;;;;;;1.65;0.50;;;;;;;30.18;24.49;98510.41;6242536;23;20668;-90
2022/09/13 14:01:58;;;;;;;1.55;0.50;;;;;;;30.34;24.12;98523.38;6240419;23;20904;-88
2022/09/13 14:04:42;;;;;;;0.80;0.50;;;;;;;30.81;23.75;98513.78;6217519;23;20588;-89
2022/09/13 14:07:47;;;;;;;0.77;0.40;;;;;;;30.78;24.00;98522.34;6245367;23;20188;-91
2022/09/13 14:11:05;;;;;;;1.02;0.45;;;;;;;30.33;24.02;98529.00;6244979;23;20160;-88
2022/09/13 14:14:50;;;;;;;1.55;0.30;;;;;;;30.75;23.63;98520.09;6207955;23;20153;-89
2022/09/13 14:17:53;;;;;;;1.65;0.68;;;;;;;30.76;24.00;98527.16;6152658;23;20238;-89
2022/09/13 14:20:27;;;;;;;1.27;0.43;;;;;;;30.60;23.50;98530.44;6219262;23;20161;-88
2022/09/13 14:23:18;;;;;;;1.08;0.40;;;;;;;30.89;23.00;98534.31;6237896;23;20179;-89
2022/09/13 14:25:57;;;;;;;0.98;0.52;;;;;;;30.97;23.08;98536.75;6162467;23;20568;-90
2022/09/13 14:28:45;;;;;;;1.85;0.47;;;;;;;30.73;23.18;98524.91;6221138;23;20672;-89
2022/09/13 14:34:48;;;;;;;0.98;0.40;;;;;;;31.11;22.59;98542.81;6182475;23;20595;-88
2022/09/13 14:37:20;;;;;;;0.52;0.32;;;;;;;30.97;23.16;98545.72;6245432;23;20460;-89
2022/09/13 14:40:17;;;;;;;1.42;0.52;;;;;;;30.86;23.47;98543.72;6219043;23;20160;-90
2022/09/13 14:42:55;;;;;;;0.30;0.20;;;;;;;31.11;23.18;98543.66;6227924;23;20173;-89
2022/09/13 14:45:47;;;;;;;0.82;0.32;;;;;;;30.85;23.65;98544.75;6245259;23;20160;-89
2022/09/13 14:48:20;;;;;;;1.10;0.30;;;;;;;30.63;23.85;98534.59;6230708;23;20169;-89
2022/09/13 14:50:59;;;;;;;1.08;0.40;;;;;;;30.45;23.81;98542.66;6245792;23;20148;-89
2022/09/13 14:53:33;;;;;;;1.30;0.47;;;;;;;30.41;23.33;98545.81;6219228;23;20523;-88
2022/09/13 14:56:06;;;;;;;1.13;0.38;;;;;;;29.87;24.08;98550.16;6220391;23;20514;-90
2022/09/13 14:58:44;;;;;;;1.88;0.70;;;;;;;29.83;24.17;98555.97;6218959;23;20181;-90
2022/09/13 15:01:35;;;;;;;1.42;0.57;;;;;;;29.86;24.55;98552.00;6244763;23;20168;-89
2022/09/13 15:04:08;;;;;;;0.98;0.47;;;;;;;29.73;24.98;98554.75;6244439;23;20201;-89
2022/09/13 15:06:39;;;;;;;0.77;0.40;;;;;;;29.94;25.25;98559.03;6246074;23;20141;-89
2022/09/13 15:09:37;;;;;;;1.85;0.65;;;;;;;29.96;24.70;98548.81;6219845;23;20475;-89
2022/09/13 15:12:24;;;;;;;0.73;0.30;;;;;;;29.76;24.78;98557.88;6219201;23;20196;-90
2022/09/13 15:15:34;;;;;;;1.25;0.60;;;;;;;29.77;24.46;98556.81;6245879;23;20130;-89
2022/09/13 15:18:31;;;;;;;0.98;0.40;;;;;;;29.61;24.83;98561.91;6219804;23;20177;-88
2022/09/13 15:21:03;;;;;;;0.77;0.40;;;;;;;29.59;24.97;98554.00;6216700;23;20604;-90
2022/09/13 15:23:38;;;;;;;0.85;0.43;;;;;;;29.58;25.34;98552.38;6220688;23;20616;-90
2022/09/13 15:26:20;;;;;;;0.60;0.30;;;;;;;29.78;24.67;98549.53;6221436;23;20210;-89
2022/09/13 15:29:01;;;;;;;1.02;0.32;;;;;;;29.71;24.96;98552.28;6221450;23;20497;-89
2022/09/13 15:32:12;;;;;;;1.10;0.38;;;;;;;29.73;25.28;98549.34;6221021;23;20145;-89
2022/09/13 15:35:00;;;;;;;0.70;0.40;;;;;;;29.53;24.52;98557.59;6246806;23;20161;-89
2022/09/13 15:37:39;;;;;;;1.35;0.43;;;;;;;29.31;24.70;98558.09;6247748;23;20221;-89
2022/09/13 15:40:42;;;;;;;1.05;0.50;;;;;;;29.20;24.96;98554.16;6222175;23;20169;-89
2022/09/13 15:43:10;;;;;;;1.08;0.40;;;;;;;29.22;24.65;98561.03;6247780;23;20137;-89
2022/09/13 15:45:38;;;;;;;1.80;0.47;;;;;;;29.35;24.84;98560.13;6220996;23;20165;-89
2022/09/13 15:48:04;;;;;;;1.02;0.40;;;;;;;29.32;24.78;98555.19;6247320;23;20577;-89
2022/09/13 15:51:03;;;;;;;0.95;0.57;;;;;;;29.26;24.88;98566.00;6247532;23;20177;-88
2022/09/13 15:53:34;;;;;;;1.10;0.57;;;;;;;29.08;25.03;98563.94;6214399;23;20212;-90
2022/09/13 15:56:04;;;;;;;0.77;0.30;;;;;;;29.19;25.13;98563.31;6247765;23;20133;-89
2022/09/13 15:58:51;;;;;;;3.58;0.50;;;;;;;29.00;25.32;98570.41;6220555;23;20251;-88
2022/09/13 16:01:29;;;;;;;;;;;;;;;;;;;;;
2022/09/13 16:04:08;;;;;;;;;;;;;;;;;;;;;
2022/09/13 16:06:51;;;;;;;1.40;0.60;;;;;;;29.13;25.81;98564.97;6247685;23;20204;-89
2022/09/13 16:09:32;;;;;;;1.75;0.70;;;;;;;28.97;25.85;98572.69;6221263;23;20197;-90
2022/09/13 16:12:25;;;;;;;;;;;;;;;;;;;;;
2022/09/13 16:15:01;;;;;;;;;;;;;;;;;;;;;
2022/09/13 16:17:46;;;;;;;0.47;0.30;;;;;;;29.05;26.02;98573.31;6246897;23;20239;-89
2022/09/13 16:20:24;;;;;;;1.55;0.55;;;;;;;28.98;25.72;98571.66;6220440;23;20560;-90
2022/09/13 16:22:58;;;;;;;0.60;0.35;;;;;;;28.88;26.43;98571.28;6245067;23;20167;-89
2022/09/13 16:26:13;;;;;;;1.10;0.45;;;;;;;28.71;26.57;98576.28;6220381;23;20191;-89
2022/09/13 16:28:44;;;;;;;0.73;0.30;;;;;;;28.57;26.61;98575.41;6239511;23;20159;-89
2022/09/13 16:31:30;;;;;;;;;;;;;;;;;;;;;
2022/09/13 16:34:19;;;;;;;1.33;0.57;;;;;;;28.40;26.83;98576.91;6246808;23;20569;-89
2022/09/13 16:36:49;;;;;;;1.77;0.52;;;;;;;28.41;27.26;98575.84;6220963;23;20149;-89
2022/09/13 16:39:17;;;;;;;1.17;0.77;;;;;;;28.16;27.18;98582.06;6247051;23;20240;-89
2022/09/13 16:41:43;;;;;;;1.23;0.55;;;;;;;28.17;27.13;98584.53;6247147;23;20156;-89
2022/09/13 16:44:14;;;;;;;1.23;0.52;;;;;;;28.09;27.48;98578.53;6247141;23;20145;-88
2022/09/13 16:46:40;;;;;;;2.00;0.50;;;;;;;28.07;27.79;98588.69;6246415;23;20142;-89
2022/09/13 16:49:30;;;;;;;1.30;0.50;;;;;;;27.99;27.46;98590.50;6219541;23;20153;-89
2022/09/13 16:52:05;;;;;;;1.23;0.55;;;;;;;27.95;27.78;98591.94;6220908;23;20157;-89
2022/09/13 16:54:36;;;;;;;0.80;0.40;;;;;;;27.79;27.53;98589.63;6219677;23;20218;-89
2022/09/13 16:57:14;;;;;;;;;;;;;;;;;;;;;
2022/09/13 17:02:47;;;;;;;2.10;0.40;;;;;;;27.17;28.63;98595.16;6226377;22;20204;-89
2022/09/13 17:05:44;;;;;;;1.17;0.47;;;;;;;27.12;28.71;98608.34;6247492;23;20149;-90
2022/09/13 17:09:00;;;;;;;1.00;0.50;;;;;;;27.05;28.71;98609.34;6219776;23;20165;-89
2022/09/13 17:11:46;;;;;;;1.30;0.50;;;;;;;26.81;29.04;98618.69;6183604;23;20158;-89
2022/09/13 17:15:14;;;;;;;;;;;;;;;;;;;;;
2022/09/13 17:30:03;;;;;;;;;;;;;;;;;;;;;